Time;durP1;ratioP1;P1;durP2;ratioP2;P2;SDS_P1;SDS_P2;PMS_P1;PMS_P2;Temp;Humidity;BMP_temperature;BMP_pressure;BME280_temperature;BME280_humidity;BME280_pressure;Samples;Min_cycle;Max_cycle;Signal;HPM_P1;HPM_P2
2022/10/17 00:00:33;;;;;;;23.13;12.13;;;;;;;12.76;100.00;101411.53;5055179;28;20490;-63
2022/10/17 00:02:59;;;;;;;22.70;12.23;;;;;;;12.73;100.00;101402.66;5055440;28;20029;-66
2022/10/17 00:05:24;;;;;;;22.83;11.93;;;;;;;12.79;100.00;101403.56;5055169;28;20021;-65
2022/10/17 00:07:50;;;;;;;23.90;12.30;;;;;;;12.82;100.00;101399.16;5055562;28;20021;-65
2022/10/17 00:10:16;;;;;;;22.92;11.75;;;;;;;12.85;100.00;101401.81;5055338;28;20033;-66
2022/10/17 00:12:41;;;;;;;23.55;11.82;;;;;;;12.86;100.00;101403.59;5054966;28;20495;-66
2022/10/17 00:15:07;;;;;;;23.20;12.02;;;;;;;12.90;100.00;101405.38;5055556;28;20032;-65
2022/10/17 00:17:33;;;;;;;22.98;12.27;;;;;;;12.93;100.00;101407.16;5050903;28;20028;-65
2022/10/17 00:19:59;;;;;;;22.70;11.98;;;;;;;12.96;100.00;101398.31;5054959;28;20025;-65
2022/10/17 00:22:25;;;;;;;23.70;12.13;;;;;;;12.99;100.00;101400.97;5054987;28;20044;-66
2022/10/17 00:24:50;;;;;;;24.30;12.38;;;;;;;13.03;100.00;101394.78;5055002;28;20460;-66
2022/10/17 00:27:16;;;;;;;23.20;12.50;;;;;;;13.04;100.00;101397.44;5054646;28;20387;-66
2022/10/17 00:29:41;;;;;;;23.38;12.35;;;;;;;13.02;100.00;101385.09;5054649;28;20067;-65
2022/10/17 00:32:07;;;;;;;24.33;12.93;;;;;;;13.02;100.00;101393.03;5054920;28;20109;-66
2022/10/17 00:34:32;;;;;;;24.38;13.20;;;;;;;13.03;100.00;101381.53;5050786;28;20021;-66
2022/10/17 00:36:57;;;;;;;23.92;12.90;;;;;;;13.00;100.00;101386.81;5054728;28;20533;-66
2022/10/17 00:39:23;;;;;;;24.63;12.85;;;;;;;12.99;100.00;101388.59;5054604;28;20499;-66
2022/10/17 00:41:48;;;;;;;23.73;12.65;;;;;;;12.98;100.00;101378.00;5054736;28;20524;-66
2022/10/17 00:44:29;;;;;;;23.25;12.80;;;;;;;12.98;100.00;101385.94;5054446;28;20029;-66
2022/10/17 00:47:00;;;;;;;25.20;13.05;;;;;;;12.99;100.00;101377.09;5054579;28;20029;-66
2022/10/17 00:49:29;;;;;;;24.10;13.82;;;;;;;13.02;100.00;101382.44;5054196;28;20119;-66
2022/10/17 00:52:07;;;;;;;24.38;14.02;;;;;;;13.03;100.00;101376.22;5054285;28;20025;-66
2022/10/17 00:54:41;;;;;;;24.52;13.93;;;;;;;13.03;100.00;101376.22;5050274;28;20407;-65
2022/10/17 00:57:07;;;;;;;24.83;14.05;;;;;;;13.01;100.00;101381.53;5051121;28;20032;-66
2022/10/17 00:59:36;;;;;;;24.38;13.60;;;;;;;12.99;100.00;101385.03;5052994;28;20090;-66
2022/10/17 01:02:08;;;;;;;24.00;13.55;;;;;;;12.96;100.00;101383.28;5052930;28;20037;-63
2022/10/17 01:04:36;;;;;;;22.20;12.65;;;;;;;12.88;100.00;101385.91;5050641;28;20369;-63
2022/10/17 01:07:01;;;;;;;24.02;13.75;;;;;;;12.91;100.00;101382.38;5053795;28;20118;-63
2022/10/17 01:09:27;;;;;;;25.48;14.30;;;;;;;12.94;100.00;101378.84;5053849;28;20065;-63
2022/10/17 01:12:10;;;;;;;25.30;14.88;;;;;;;12.93;100.00;101375.34;5054222;28;20464;-63
2022/10/17 01:14:55;;;;;;;24.42;14.73;;;;;;;12.97;100.00;101370.91;5050444;28;20021;-63
2022/10/17 01:17:36;;;;;;;25.75;14.88;;;;;;;13.02;100.00;101382.44;5052477;28;20033;-63
2022/10/17 01:20:39;;;;;;;25.40;14.98;;;;;;;13.02;100.00;101378.00;5054211;28;20032;-63
2022/10/17 01:23:25;;;;;;;25.23;15.25;;;;;;;13.07;100.00;101375.34;5049993;28;20124;-62
2022/10/17 01:26:18;;;;;;;26.40;15.65;;;;;;;13.11;100.00;101374.47;5051926;28;20434;-63
2022/10/17 01:28:43;;;;;;;27.23;15.90;;;;;;;13.16;100.00;101372.69;5050721;28;20032;-63
2022/10/17 01:31:12;;;;;;;26.33;15.38;;;;;;;13.20;100.00;101369.19;5052500;28;20040;-63
2022/10/17 01:33:57;;;;;;;26.42;15.68;;;;;;;13.23;100.00;101366.53;5053579;28;20094;-63
2022/10/17 01:36:34;;;;;;;27.42;15.80;;;;;;;13.27;100.00;101361.25;5051864;28;20025;-63
2022/10/17 01:39:16;;;;;;;26.48;15.15;;;;;;;13.26;100.00;101370.97;5053168;28;20423;-63
2022/10/17 01:41:48;;;;;;;26.38;15.35;;;;;;;13.28;100.00;101373.63;5050485;28;20029;-63
2022/10/17 01:44:22;;;;;;;25.58;15.23;;;;;;;13.28;100.00;101371.88;5053237;28;20496;-63
2022/10/17 01:46:55;;;;;;;27.20;15.30;;;;;;;13.31;100.00;101365.66;5053432;28;20021;-63
2022/10/17 01:49:26;;;;;;;25.88;15.23;;;;;;;13.33;100.00;101362.13;5053306;28;20036;-63
2022/10/17 01:51:57;;;;;;;26.58;15.15;;;;;;;13.34;100.00;101357.69;5053396;28;20021;-63
2022/10/17 01:54:39;;;;;;;25.92;15.38;;;;;;;13.31;100.00;101368.31;5052566;28;20028;-63
2022/10/17 01:57:21;;;;;;;25.75;14.60;;;;;;;13.34;100.00;101370.97;5049597;28;20052;-62
2022/10/17 01:59:51;;;;;;;27.05;15.77;;;;;;;13.35;100.00;101364.81;5051053;28;20357;-63
2022/10/17 02:02:18;;;;;;;27.02;15.43;;;;;;;13.27;100.00;101358.59;5053185;28;20057;-62
2022/10/17 02:04:45;;;;;;;26.13;15.43;;;;;;;13.26;100.00;101363.00;5053062;28;20424;-63
2022/10/17 02:07:12;;;;;;;27.75;15.85;;;;;;;13.28;100.00;101355.94;5052863;28;20028;-63
2022/10/17 02:09:39;;;;;;;26.35;15.70;;;;;;;13.28;100.00;101352.38;5052967;28;20033;-62
2022/10/17 02:12:13;;;;;;;25.25;14.60;;;;;;;13.22;100.00;101354.16;5048730;28;20025;-62
2022/10/17 02:15:12;;;;;;;27.15;15.57;;;;;;;13.22;100.00;101342.63;5049699;28;20033;-62
2022/10/17 02:18:02;;;;;;;26.02;14.82;;;;;;;13.18;100.00;101347.06;5049354;28;20028;-62
2022/10/17 02:20:39;;;;;;;27.77;15.38;;;;;;;13.22;100.00;101345.28;5052143;28;20033;-63
2022/10/17 02:23:27;;;;;;;28.60;15.23;;;;;;;13.19;100.00;101338.22;5048808;28;20067;-63
2022/10/17 02:26:02;;;;;;;26.52;15.48;;;;;;;13.20;100.00;101344.41;5051441;28;20379;-63
2022/10/17 02:28:44;;;;;;;26.40;15.48;;;;;;;13.29;100.00;101348.84;5052504;28;20032;-63
2022/10/17 02:31:19;;;;;;;27.90;15.50;;;;;;;13.31;100.00;101347.97;5049375;28;20024;-63
2022/10/17 02:33:57;;;;;;;26.17;15.77;;;;;;;13.31;100.00;101352.38;5052544;28;20012;-62
2022/10/17 02:36:27;;;;;;;27.27;15.50;;;;;;;13.40;100.00;101352.44;5052490;28;20487;-62
2022/10/17 02:38:53;;;;;;;26.42;15.65;;;;;;;13.54;100.00;101350.69;5052669;28;20486;-63
2022/10/17 02:41:21;;;;;;;26.83;15.38;;;;;;;13.60;100.00;101349.75;5052290;28;20124;-63
2022/10/17 02:43:49;;;;;;;26.08;15.02;;;;;;;13.63;100.00;101349.78;5052385;28;20029;-66
2022/10/17 02:46:19;;;;;;;26.90;14.93;;;;;;;13.75;100.00;101349.78;5052496;28;20609;-65
2022/10/17 02:48:53;;;;;;;26.08;14.70;;;;;;;13.81;100.00;101354.19;5052521;28;20028;-67
2022/10/17 02:51:24;;;;;;;26.23;14.75;;;;;;;13.86;100.00;101347.13;5052386;28;20025;-66
2022/10/17 02:54:16;;;;;;;24.83;14.68;;;;;;;13.89;100.00;101343.56;5052385;28;20472;-66
2022/10/17 02:56:50;;;;;;;25.73;14.27;;;;;;;13.91;100.00;101350.63;5049470;28;20021;-66
2022/10/17 02:59:19;;;;;;;25.83;13.90;;;;;;;13.89;100.00;101341.78;5052296;28;20143;-65
2022/10/17 03:01:44;;;;;;;24.98;13.88;;;;;;;13.91;100.00;101347.97;5052780;28;20367;-65
2022/10/17 03:04:12;;;;;;;24.83;13.98;;;;;;;13.90;100.00;101345.31;5052320;28;20025;-65
2022/10/17 03:06:40;;;;;;;24.85;14.23;;;;;;;13.90;100.00;101348.00;5054115;28;20031;-65
2022/10/17 03:09:05;;;;;;;25.67;14.15;;;;;;;13.87;100.00;101348.88;5052383;28;20044;-66
2022/10/17 03:11:31;;;;;;;24.77;13.85;;;;;;;13.90;100.00;101343.53;5056132;28;20028;-65
2022/10/17 03:13:56;;;;;;;25.50;13.40;;;;;;;13.95;100.00;101340.91;5056170;28;20027;-66
2022/10/17 03:16:21;;;;;;;25.80;13.70;;;;;;;14.04;100.00;101340.00;5056337;28;20061;-66
2022/10/17 03:18:47;;;;;;;23.75;13.60;;;;;;;14.07;100.00;101334.69;5056256;28;20036;-65
2022/10/17 03:21:12;;;;;;;25.25;12.88;;;;;;;14.05;100.00;101341.75;5056549;28;20024;-66
2022/10/17 03:23:37;;;;;;;24.92;13.20;;;;;;;14.02;100.00;101347.06;5056096;28;20053;-67
2022/10/17 03:26:06;;;;;;;24.20;13.00;;;;;;;13.96;100.00;101342.66;5056300;28;20028;-66
2022/10/17 03:28:31;;;;;;;24.40;13.10;;;;;;;13.94;100.00;101350.63;5056006;28;20472;-63
2022/10/17 03:30:57;;;;;;;24.85;13.80;;;;;;;13.95;100.00;101347.09;5055651;28;20091;-64
2022/10/17 03:33:22;;;;;;;24.02;13.40;;;;;;;13.93;100.00;101342.66;5056078;28;20031;-64
2022/10/17 03:35:47;;;;;;;24.92;13.20;;;;;;;13.92;100.00;101349.75;5056166;28;20024;-65
2022/10/17 03:38:13;;;;;;;25.52;12.98;;;;;;;13.91;100.00;101350.63;5055598;28;20021;-65
2022/10/17 03:40:38;;;;;;;24.75;13.25;;;;;;;13.96;100.00;101347.97;5055756;28;20491;-65
2022/10/17 03:43:03;;;;;;;24.80;13.50;;;;;;;13.99;100.00;101336.47;5055956;28;20017;-64
2022/10/17 03:45:29;;;;;;;23.80;12.95;;;;;;;14.01;100.00;101339.97;5055878;28;20476;-64
2022/10/17 03:47:54;;;;;;;23.23;12.63;;;;;;;14.03;100.00;101339.09;5055729;28;20145;-64
2022/10/17 03:50:19;;;;;;;25.85;12.98;;;;;;;14.05;100.00;101333.78;5055461;28;20057;-65
2022/10/17 03:52:47;;;;;;;24.17;13.20;;;;;;;14.06;100.00;101331.13;5055354;28;20025;-64
2022/10/17 03:55:12;;;;;;;23.92;12.88;;;;;;;14.07;100.00;101334.69;5055555;28;20028;-64
2022/10/17 03:57:37;;;;;;;24.40;12.82;;;;;;;14.07;100.00;101334.69;5055885;28;20021;-65
2022/10/17 04:00:04;;;;;;;25.38;13.15;;;;;;;14.09;100.00;101335.53;5051016;28;20029;-64
2022/10/17 04:02:29;;;;;;;23.17;12.48;;;;;;;14.11;100.00;101341.72;5049827;28;20032;-64
2022/10/17 04:04:54;;;;;;;23.13;12.57;;;;;;;14.12;100.00;101351.47;5055388;28;20391;-65
2022/10/17 04:07:20;;;;;;;24.50;12.68;;;;;;;14.15;100.00;101342.63;5055215;28;20029;-65
2022/10/17 04:09:45;;;;;;;25.67;13.25;;;;;;;14.20;100.00;101348.78;5055296;28;20090;-65
2022/10/17 04:12:10;;;;;;;23.73;12.40;;;;;;;14.21;100.00;101350.56;5055060;28;20535;-64
2022/10/17 04:14:37;;;;;;;23.45;12.38;;;;;;;14.22;100.00;101361.22;5054942;28;20032;-64
2022/10/17 04:17:02;;;;;;;22.67;12.43;;;;;;;14.24;100.00;101362.09;5055191;28;20029;-65
2022/10/17 04:19:28;;;;;;;24.10;12.25;;;;;;;14.27;100.00;101359.44;5054420;28;20041;-66
2022/10/17 04:21:53;;;;;;;25.02;13.20;;;;;;;14.27;100.00;101358.53;5054873;28;20025;-65
2022/10/17 04:24:18;;;;;;;24.05;12.27;;;;;;;14.33;100.00;101363.84;5054939;28;20075;-64
2022/10/17 04:26:44;;;;;;;23.33;12.02;;;;;;;14.33;100.00;101362.94;5054839;28;20490;-64
2022/10/17 04:29:10;;;;;;;23.33;11.75;;;;;;;14.33;100.00;101368.25;5054573;28;20387;-64
2022/10/17 04:31:35;;;;;;;23.35;12.18;;;;;;;14.34;100.00;101370.91;5055103;28;20048;-64
2022/10/17 04:34:00;;;;;;;23.65;12.20;;;;;;;14.37;100.00;101375.34;5054567;28;20032;-66
2022/10/17 04:36:26;;;;;;;24.83;12.07;;;;;;;14.37;100.00;101370.94;5054654;28;20021;-66
2022/10/17 04:38:51;;;;;;;22.67;11.68;;;;;;;14.38;100.00;101379.78;5048315;28;20025;-66
2022/10/17 04:41:17;;;;;;;22.20;11.65;;;;;;;14.33;100.00;101384.22;5053501;28;20045;-66
2022/10/17 04:43:43;;;;;;;22.30;11.75;;;;;;;14.29;100.00;101396.66;5054684;28;20025;-66
2022/10/17 04:46:11;;;;;;;23.67;11.70;;;;;;;14.37;100.00;101401.94;5054811;28;20479;-66
2022/10/17 04:48:37;;;;;;;23.35;11.50;;;;;;;14.35;100.00;101393.97;5054373;28;20058;-66
2022/10/17 04:51:09;;;;;;;22.52;11.38;;;;;;;14.36;100.00;101392.19;5054449;28;20036;-66
2022/10/17 04:53:36;;;;;;;22.63;12.13;;;;;;;14.36;100.00;101408.16;5054481;28;20460;-65
2022/10/17 04:56:08;;;;;;;22.52;11.80;;;;;;;14.38;100.00;101407.25;5054205;28;20472;-66
2022/10/17 04:58:33;;;;;;;22.70;12.07;;;;;;;14.44;100.00;101409.91;5054137;28;20029;-66
2022/10/17 05:00:58;;;;;;;23.35;11.30;;;;;;;14.45;100.00;101421.44;5054546;28;20094;-66
2022/10/17 05:03:23;;;;;;;22.67;11.45;;;;;;;14.49;100.00;101412.56;5054100;28;20021;-66
2022/10/17 05:05:49;;;;;;;23.25;11.63;;;;;;;14.54;100.00;101404.56;5054031;28;20575;-66
2022/10/17 05:08:14;;;;;;;21.65;11.00;;;;;;;14.55;100.00;101409.88;5054471;28;20029;-66
2022/10/17 05:10:43;;;;;;;22.02;11.05;;;;;;;14.54;100.00;101404.56;5053629;28;20082;-66
2022/10/17 05:13:08;;;;;;;23.50;11.25;;;;;;;14.56;100.00;101403.69;5054111;28;20029;-66
2022/10/17 05:15:35;;;;;;;23.30;10.98;;;;;;;14.57;100.00;101400.09;5054077;28;20078;-64
2022/10/17 05:18:01;;;;;;;21.98;10.40;;;;;;;14.56;100.00;101401.03;5054144;28;20032;-63
2022/10/17 05:20:26;;;;;;;21.52;11.02;;;;;;;14.62;100.00;101409.00;5053855;28;20016;-64
2022/10/17 05:22:52;;;;;;;23.70;11.35;;;;;;;14.61;100.00;101419.63;5053882;28;20503;-63
2022/10/17 05:25:18;;;;;;;22.50;10.88;;;;;;;14.63;100.00;101416.09;5054111;28;20475;-64
2022/10/17 05:27:43;;;;;;;21.98;11.13;;;;;;;14.69;100.00;101420.50;5053919;28;20037;-64
2022/10/17 05:30:09;;;;;;;22.63;10.70;;;;;;;14.72;100.00;101419.59;5053013;28;20159;-64
2022/10/17 05:32:35;;;;;;;22.98;11.00;;;;;;;14.75;100.00;101423.16;5053805;28;20036;-64
2022/10/17 05:35:00;;;;;;;22.63;10.82;;;;;;;14.86;100.00;101425.75;5053704;28;20017;-64
2022/10/17 05:37:28;;;;;;;21.63;10.93;;;;;;;14.88;100.00;101425.75;5053502;28;20024;-64
2022/10/17 05:39:53;;;;;;;23.20;10.70;;;;;;;14.94;100.00;101431.94;5052989;28;20041;-64
2022/10/17 05:42:19;;;;;;;22.00;10.60;;;;;;;14.95;100.00;101432.81;5053738;28;20025;-64
2022/10/17 05:44:44;;;;;;;24.63;10.38;;;;;;;14.96;100.00;101427.50;5045645;28;20460;-61
2022/10/17 05:47:10;;;;;;;23.52;10.10;;;;;;;14.97;100.00;101436.38;5047439;28;20025;-62
2022/10/17 05:49:35;;;;;;;22.50;10.10;;;;;;;15.05;100.00;101439.00;5046351;28;20060;-61
2022/10/17 05:52:00;;;;;;;20.23;9.38;;;;;;;15.11;100.00;101438.97;5045175;28;20071;-62
2022/10/17 05:54:26;;;;;;;21.75;10.30;;;;;;;15.13;100.00;101439.81;5048240;28;20444;-63
2022/10/17 05:56:53;;;;;;;22.60;10.30;;;;;;;15.15;100.00;101435.41;5046392;28;20701;-62
2022/10/17 05:59:18;;;;;;;20.77;9.60;;;;;;;15.16;100.00;101434.50;5046809;28;20040;-63
2022/10/17 06:01:43;;;;;;;21.48;9.77;;;;;;;15.10;100.00;101440.75;5044796;28;20045;-62
2022/10/17 06:04:09;;;;;;;21.77;9.35;;;;;;;15.08;100.00;101441.66;5048661;28;20464;-64
2022/10/17 06:06:39;;;;;;;23.70;10.00;;;;;;;15.09;100.00;101441.63;5044946;28;20163;-62
2022/10/17 06:09:06;;;;;;;21.25;10.23;;;;;;;15.11;100.00;101444.28;5046463;28;20031;-62
2022/10/17 06:11:33;;;;;;;21.98;9.73;;;;;;;15.08;100.00;101444.31;5046273;28;20055;-62
2022/10/17 06:13:58;;;;;;;21.45;9.80;;;;;;;15.08;100.00;101449.63;5045890;28;20425;-62
2022/10/17 06:16:24;;;;;;;22.42;10.20;;;;;;;15.13;100.00;101446.06;5046124;28;20052;-62
2022/10/17 06:18:49;;;;;;;20.17;9.98;;;;;;;15.15;100.00;101446.91;5043003;28;20108;-64
2022/10/17 06:21:18;;;;;;;21.70;9.82;;;;;;;15.12;100.00;101443.41;5043830;28;20033;-63
2022/10/17 06:23:43;;;;;;;23.17;9.68;;;;;;;15.13;100.00;101454.03;5045827;28;20029;-66
2022/10/17 06:26:09;;;;;;;21.48;9.57;;;;;;;15.18;100.00;101455.81;5045024;28;20422;-64
2022/10/17 06:28:35;;;;;;;22.10;9.40;;;;;;;15.18;100.00;101450.47;5044363;28;20445;-63
2022/10/17 06:31:09;;;;;;;23.33;9.60;;;;;;;15.19;100.00;101453.13;5045147;28;20398;-64
2022/10/17 06:33:38;;;;;;;21.25;9.73;;;;;;;15.19;100.00;101450.47;5046132;28;20068;-62
2022/10/17 06:36:05;;;;;;;22.65;9.50;;;;;;;15.20;100.00;101449.56;5047541;28;20494;-63
2022/10/17 06:38:32;;;;;;;21.17;9.18;;;;;;;15.21;100.00;101451.34;5046625;28;20032;-63
2022/10/17 06:41:14;;;;;;;21.77;9.85;;;;;;;15.24;100.00;101455.78;5044344;28;20045;-64
2022/10/17 06:43:45;;;;;;;20.45;9.13;;;;;;;15.27;100.00;101455.75;5040847;28;20026;-62
2022/10/17 06:46:11;;;;;;;21.70;9.60;;;;;;;15.32;100.00;101460.16;5046952;28;20461;-63
2022/10/17 06:48:37;;;;;;;21.52;9.68;;;;;;;15.39;100.00;101470.78;5044819;28;20109;-63
2022/10/17 06:51:04;;;;;;;21.52;9.40;;;;;;;15.46;100.00;101475.16;5048693;28;20457;-63
2022/10/17 06:53:32;;;;;;;21.75;9.07;;;;;;;15.55;100.00;101472.44;5045260;28;20078;-63
2022/10/17 06:56:01;;;;;;;21.33;9.07;;;;;;;15.58;100.00;101477.78;5044411;28;20025;-63
2022/10/17 06:58:31;;;;;;;21.27;9.15;;;;;;;15.65;100.00;101474.19;5046988;28;20017;-63
2022/10/17 07:00:58;;;;;;;20.75;9.27;;;;;;;15.74;100.00;101475.00;5045797;28;20025;-63
2022/10/17 07:03:23;;;;;;;21.75;9.00;;;;;;;15.79;100.00;101471.44;5044025;28;20032;-64
2022/10/17 07:05:52;;;;;;;22.38;9.00;;;;;;;15.83;100.00;101472.31;5044363;28;20025;-62
2022/10/17 07:08:18;;;;;;;21.20;9.10;;;;;;;15.85;100.00;101474.03;5041681;28;20445;-62
2022/10/17 07:10:43;;;;;;;20.30;8.45;;;;;;;15.91;100.00;101485.56;5045290;28;20091;-62
2022/10/17 07:13:09;;;;;;;21.25;8.20;;;;;;;15.92;100.00;101482.91;5043855;28;20025;-67
2022/10/17 07:15:36;;;;;;;20.55;8.30;;;;;;;15.94;100.00;101480.22;5047589;28;20017;-66
2022/10/17 07:18:01;;;;;;;21.35;8.65;;;;;;;15.97;100.00;101480.19;5044281;28;20033;-67
2022/10/17 07:20:26;;;;;;;19.13;7.95;;;;;;;16.01;100.00;101477.47;5046114;28;20098;-66
2022/10/17 07:22:52;;;;;;;20.75;8.20;;;;;;;16.01;100.00;101488.13;5044999;28;20564;-67
2022/10/17 07:25:17;;;;;;;21.13;7.90;;;;;;;15.98;100.00;101497.97;5041151;28;20037;-66
2022/10/17 07:27:42;;;;;;;20.02;7.97;;;;;;;15.98;100.00;101498.84;5042995;28;20029;-68
2022/10/17 07:30:08;;;;;;;21.73;8.20;;;;;;;15.98;100.00;101498.84;5045347;28;20079;-71
2022/10/17 07:32:34;;;;;;;20.92;7.53;;;;;;;16.00;100.00;101514.81;5045322;28;20021;-68
2022/10/17 07:34:59;;;;;;;19.73;7.70;;;;;;;16.06;100.00;101522.75;5045344;28;20109;-66
2022/10/17 07:37:24;;;;;;;20.25;7.93;;;;;;;16.10;100.00;101555.66;5043272;28;20043;-65
2022/10/17 07:39:49;;;;;;;18.98;7.60;;;;;;;16.06;100.00;101569.91;5045502;28;20037;-66
2022/10/17 07:42:15;;;;;;;19.85;8.10;;;;;;;15.98;100.00;101594.81;5045745;28;20523;-68
2022/10/17 07:44:40;;;;;;;21.00;8.55;;;;;;;15.86;100.00;101606.44;5047477;28;20025;-67
2022/10/17 07:47:06;;;;;;;19.48;8.15;;;;;;;15.64;100.00;101626.97;5047591;28;20025;-67
2022/10/17 07:49:31;;;;;;;21.63;8.70;;;;;;;15.50;100.00;101628.78;5047106;28;20029;-67
2022/10/17 07:51:56;;;;;;;20.92;8.50;;;;;;;15.44;100.00;101650.13;5045971;28;20021;-68
2022/10/17 07:54:22;;;;;;;22.05;9.60;;;;;;;15.32;100.00;101640.41;5046641;28;20029;-67
2022/10/17 07:56:49;;;;;;;21.15;9.38;;;;;;;15.30;100.00;101652.81;5043862;28;20107;-65
2022/10/17 07:59:16;;;;;;;21.13;9.45;;;;;;;15.25;100.00;101642.19;5049101;28;20090;-65
2022/10/17 08:01:41;;;;;;;22.52;9.77;;;;;;;15.26;100.00;101630.66;5051719;28;20468;-65
2022/10/17 08:04:06;;;;;;;21.80;10.18;;;;;;;15.22;100.00;101649.28;5055212;28;20033;-65
2022/10/17 08:06:32;;;;;;;23.77;11.35;;;;;;;15.20;100.00;101646.63;5055172;28;20075;-65
2022/10/17 08:08:58;;;;;;;22.60;11.40;;;;;;;15.20;100.00;101630.66;5055213;28;20025;-65
2022/10/17 08:11:24;;;;;;;24.83;11.90;;;;;;;15.18;100.00;101635.09;5053780;28;20040;-65
2022/10/17 08:13:49;;;;;;;25.67;12.65;;;;;;;15.16;100.00;101637.78;5055176;28;20023;-65
2022/10/17 08:16:14;;;;;;;24.98;12.82;;;;;;;15.13;100.00;101651.09;5055205;28;20071;-65
2022/10/17 08:18:42;;;;;;;23.27;12.55;;;;;;;15.12;100.00;101675.06;5055074;28;20024;-66
2022/10/17 08:21:08;;;;;;;25.80;13.32;;;;;;;15.10;100.00;101687.47;5051012;28;20039;-67
2022/10/17 08:23:35;;;;;;;24.60;13.35;;;;;;;15.06;100.00;101707.03;5055082;28;20021;-66
2022/10/17 08:26:02;;;;;;;26.13;13.15;;;;;;;15.07;100.00;101717.69;5050083;28;20375;-64
2022/10/17 08:28:28;;;;;;;26.27;13.68;;;;;;;15.06;100.00;101704.38;5046060;28;20037;-64
2022/10/17 08:31:05;;;;;;;27.05;14.45;;;;;;;15.05;100.00;101686.59;5051674;28;20064;-64
2022/10/17 08:33:32;;;;;;;25.05;13.80;;;;;;;15.07;100.00;101706.13;5045845;28;20036;-64
2022/10/17 08:35:58;;;;;;;25.50;14.20;;;;;;;15.08;100.00;101715.91;5047910;28;20108;-64
2022/10/17 08:38:24;;;;;;;25.45;14.52;;;;;;;15.05;100.00;101700.81;5044142;28;20022;-64
2022/10/17 08:40:49;;;;;;;26.83;14.73;;;;;;;15.07;100.00;101688.38;5046980;28;20549;-65
2022/10/17 08:43:41;;;;;;;25.55;14.60;;;;;;;15.04;100.00;101701.69;5048557;28;20077;-65
2022/10/17 08:46:08;;;;;;;26.65;14.50;;;;;;;15.07;100.00;101708.78;5047495;28;20618;-65
2022/10/17 08:48:40;;;;;;;27.25;14.38;;;;;;;15.08;100.00;101699.91;5047296;28;20029;-65
2022/10/17 08:51:23;;;;;;;26.88;14.68;;;;;;;15.06;100.00;101688.41;5047575;28;20038;-64
2022/10/17 08:53:55;;;;;;;25.92;14.68;;;;;;;15.08;100.00;101690.13;5047519;28;20025;-65
2022/10/17 08:56:37;;;;;;;26.48;15.02;;;;;;;15.09;100.00;101694.59;5049198;28;20539;-63
2022/10/17 08:59:10;;;;;;;26.70;15.25;;;;;;;15.10;100.00;101685.72;5045752;28;20029;-64
2022/10/17 09:01:53;;;;;;;27.00;15.50;;;;;;;15.11;100.00;101691.91;5047992;28;20468;-65
2022/10/17 09:04:27;;;;;;;28.27;16.08;;;;;;;15.13;100.00;101692.78;5047610;28;20048;-65
2022/10/17 09:07:10;;;;;;;26.88;15.13;;;;;;;15.12;100.00;101704.34;5045385;28;20456;-65
2022/10/17 09:10:03;;;;;;;27.73;15.50;;;;;;;15.14;100.00;101707.88;5045683;28;20040;-64
2022/10/17 09:12:37;;;;;;;;;;;;;;;15.04;100.00;101719.44;5025856;28;20388;-64
2022/10/17 09:15:40;;;;;;;27.48;15.55;;;;;;;15.06;100.00;101744.31;5026470;28;19913;-65
2022/10/17 09:18:16;;;;;;;28.13;15.88;;;;;;;15.08;100.00;101758.50;5027255;28;20037;-64
2022/10/17 09:20:50;;;;;;;28.40;16.25;;;;;;;15.08;100.00;101769.16;5025138;28;20040;-66
2022/10/17 09:23:20;;;;;;;35.78;16.20;;;;;;;15.08;100.00;101772.69;5025444;28;20042;-66
2022/10/17 09:25:51;;;;;;;29.33;16.60;;;;;;;15.07;100.00;101760.28;5025619;28;20033;-67
2022/10/17 09:28:24;;;;;;;30.08;16.77;;;;;;;15.08;100.00;101734.53;5023240;28;20531;-67
2022/10/17 09:30:58;;;;;;;29.52;17.42;;;;;;;15.11;100.00;101692.78;5024868;28;20396;-65
2022/10/17 09:33:27;;;;;;;31.83;18.02;;;;;;;15.16;100.00;101660.88;5025313;28;20033;-67
2022/10/17 09:35:53;;;;;;;29.52;17.75;;;;;;;15.22;100.00;101657.28;5022889;28;20030;-69
2022/10/17 09:38:22;;;;;;;30.05;16.95;;;;;;;15.23;100.00;101678.59;5023900;28;20025;-74
2022/10/17 09:40:55;;;;;;;29.40;18.08;;;;;;;15.22;100.00;101687.47;5025245;28;20058;-70
2022/10/17 09:43:22;;;;;;;30.90;18.55;;;;;;;15.21;100.00;101700.78;5024954;28;20507;-70
2022/10/17 09:46:04;;;;;;;31.05;17.92;;;;;;;15.17;100.00;101726.53;5025644;28;20033;-69
2022/10/17 09:49:15;;;;;;;29.92;17.58;;;;;;;15.16;100.00;101730.97;5026501;28;20112;-69
2022/10/17 09:51:40;;;;;;;31.88;18.05;;;;;;;15.16;100.00;101724.78;5030477;28;20535;-69
2022/10/17 09:54:21;;;;;;;32.17;17.98;;;;;;;15.20;100.00;101720.31;5025587;28;20079;-69
2022/10/17 09:57:16;;;;;;;31.60;18.52;;;;;;;15.24;100.00;101709.66;5009141;28;20033;-67
2022/10/17 09:59:55;;;;;;;34.75;19.83;;;;;;;15.39;100.00;101706.09;4951368;29;20075;-68
2022/10/17 10:02:23;;;;;;;33.35;19.35;;;;;;;15.46;100.00;101706.97;4950739;28;20035;-68
2022/10/17 10:04:59;;;;;;;32.45;19.20;;;;;;;15.48;100.00;101702.53;4947350;29;20039;-68
2022/10/17 10:07:28;;;;;;;33.90;19.83;;;;;;;15.49;100.00;101712.28;4945057;29;20058;-70
2022/10/17 10:09:54;;;;;;;31.65;18.67;;;;;;;15.47;100.00;101706.06;4948031;29;20039;-69
2022/10/17 10:12:34;;;;;;;31.95;18.77;;;;;;;15.44;100.00;101720.28;4946921;29;20188;-71
2022/10/17 10:15:00;;;;;;;32.20;18.55;;;;;;;15.43;100.00;101728.28;4941600;28;20651;-70
2022/10/17 10:17:40;;;;;;;33.70;19.35;;;;;;;15.39;100.00;101737.16;4956871;28;20113;-70
2022/10/17 10:20:28;;;;;;;32.60;19.50;;;;;;;15.34;100.00;101735.38;4950155;28;20043;-70
2022/10/17 10:23:18;;;;;;;35.15;20.60;;;;;;;15.44;100.00;101741.59;4948166;29;20046;-70
2022/10/17 10:26:21;;;;;;;33.78;20.63;;;;;;;15.54;100.00;101750.47;4916506;29;20032;-70
2022/10/17 10:28:59;;;;;;;31.13;17.88;;;;;;;15.49;100.00;101766.47;4926981;29;20039;-70
2022/10/17 10:31:37;;;;;;;30.70;18.30;;;;;;;15.46;100.00;101771.78;4921040;29;20508;-68
2022/10/17 10:34:28;;;;;;;29.95;17.58;;;;;;;15.51;100.00;101769.13;4922683;29;20075;-69
2022/10/17 10:37:01;;;;;;;30.17;17.23;;;;;;;15.52;100.00;101773.53;4973064;28;20042;-68
2022/10/17 10:39:46;;;;;;;29.23;16.30;;;;;;;15.48;100.00;101785.13;4985263;28;20051;-70
2022/10/17 10:43:10;;;;;;;29.40;15.60;;;;;;;15.47;100.00;101796.66;4981802;28;20058;-68
2022/10/17 10:45:35;;;;;;;28.83;15.73;;;;;;;15.41;100.00;101808.22;4950495;29;20179;-70
2022/10/17 10:48:13;;;;;;;31.90;16.17;;;;;;;15.41;100.00;101824.19;4951542;29;20035;-69
2022/10/17 10:50:41;;;;;;;29.08;15.77;;;;;;;15.39;100.00;101827.75;4939309;29;20395;-68
2022/10/17 10:53:44;;;;;;;27.77;15.35;;;;;;;15.38;100.00;101825.94;4945638;29;20041;-67
2022/10/17 10:56:18;;;;;;;28.40;15.23;;;;;;;15.34;100.00;101836.63;4944598;29;20398;-68
2022/10/17 10:59:22;;;;;;;26.55;14.43;;;;;;;15.33;100.00;101829.53;4941617;29;20034;-68
2022/10/17 11:01:50;;;;;;;;;;;;;;;15.29;100.00;101822.41;4940828;29;20043;-69
2022/10/17 11:04:49;;;;;;;28.15;14.50;;;;;;;15.29;100.00;101825.09;4944860;28;19982;-67
2022/10/17 11:07:24;;;;;;;29.17;15.23;;;;;;;15.35;100.00;101826.88;4968983;28;20042;-69
2022/10/17 11:09:53;;;;;;;27.75;14.68;;;;;;;15.37;100.00;101825.06;4971944;28;20417;-66
2022/10/17 11:12:32;;;;;;;28.02;15.45;;;;;;;15.45;100.00;101833.06;4970971;28;20537;-73
2022/10/17 11:15:28;;;;;;;28.63;15.50;;;;;;;15.45;100.00;101841.06;4969861;28;20129;-73
2022/10/17 11:17:59;;;;;;;28.65;16.17;;;;;;;15.43;100.00;101834.84;4970297;28;20070;-68
2022/10/17 11:20:43;;;;;;;28.30;15.90;;;;;;;15.42;100.00;101849.06;4974437;28;20170;-68